createdAt,value
2022-08-10T00:00:53.858Z,16.70
2022-08-10T00:03:21.447Z,16.70
2022-08-10T00:05:52.700Z,16.60
2022-08-10T00:08:23.536Z,16.60
2022-08-10T00:10:53.408Z,16.60
2022-08-10T00:13:21.346Z,16.50
2022-08-10T00:15:54.099Z,16.50
2022-08-10T00:18:34.808Z,16.40
2022-08-10T00:21:05.384Z,16.40
2022-08-10T00:23:33.554Z,16.30
2022-08-10T00:26:01.666Z,16.20
2022-08-10T00:28:29.394Z,16.20
2022-08-10T00:30:56.979Z,16.20
2022-08-10T00:33:24.879Z,16.20
2022-08-10T00:35:52.343Z,16.10
2022-08-10T00:38:19.891Z,16.20
2022-08-10T00:40:47.462Z,16.30
2022-08-10T00:43:14.930Z,16.30
2022-08-10T00:45:58.801Z,16.20
2022-08-10T00:48:31.027Z,16.20
2022-08-10T00:51:01.682Z,16.10
2022-08-10T00:53:30.007Z,16.10
2022-08-10T00:57:10.010Z,16.00
2022-08-10T00:58:46.403Z,16.00
2022-08-10T01:02:09.905Z,15.90
2022-08-10T01:04:39.568Z,15.90
2022-08-10T01:07:26.956Z,15.80
2022-08-10T01:10:18.566Z,15.80
2022-08-10T01:13:04.821Z,15.80
2022-08-10T01:15:50.328Z,15.80
2022-08-10T01:18:39.896Z,15.80
2022-08-10T01:21:32.352Z,15.80
2022-08-10T01:24:11.924Z,15.80
2022-08-10T01:27:04.088Z,15.80
2022-08-10T01:29:46.495Z,15.80
2022-08-10T01:32:18.175Z,15.80
2022-08-10T01:35:05.486Z,15.80
2022-08-10T01:37:38.811Z,15.90
2022-08-10T01:40:12.481Z,15.90
2022-08-10T01:42:47.191Z,15.80
2022-08-10T01:45:17.109Z,15.80
2022-08-10T01:48:06.520Z,15.80
2022-08-10T01:50:59.127Z,15.70
2022-08-10T01:53:41.280Z,15.70
2022-08-10T01:56:12.838Z,15.70
2022-08-10T01:58:41.004Z,15.70
2022-08-10T02:01:11.254Z,15.70
2022-08-10T02:04:03.979Z,15.70
2022-08-10T02:06:38.516Z,15.60
2022-08-10T02:09:08.581Z,15.60
2022-08-10T02:11:55.965Z,15.60
2022-08-10T02:14:34.180Z,15.60
2022-08-10T02:17:05.625Z,15.60
2022-08-10T02:19:36.494Z,15.50
2022-08-10T02:22:37.417Z,15.60
2022-08-10T02:24:54.386Z,15.60
2022-08-10T02:27:25.016Z,15.60
2022-08-10T02:29:54.248Z,15.50
2022-08-10T02:32:38.037Z,15.50
2022-08-10T02:35:22.218Z,15.50
2022-08-10T02:37:52.785Z,15.40
2022-08-10T02:45:16.072Z,15.50
2022-08-10T02:45:22.068Z,15.50
2022-08-10T02:46:40.297Z,15.50
2022-08-10T02:49:13.071Z,15.50
2022-08-10T02:52:07.440Z,15.40
2022-08-10T02:54:53.748Z,15.50
2022-08-10T02:57:29.025Z,15.50
2022-08-10T03:00:02.120Z,15.50
2022-08-10T03:02:34.648Z,15.50
2022-08-10T03:05:08.358Z,15.50
2022-08-10T03:07:48.555Z,15.60
2022-08-10T03:10:23.235Z,15.60
2022-08-10T03:12:59.552Z,15.60
2022-08-10T03:15:30.309Z,15.50
2022-08-10T03:17:59.157Z,15.60
2022-08-10T03:20:39.491Z,15.50
2022-08-10T03:23:16.644Z,15.50
2022-08-10T03:25:54.290Z,15.60
2022-08-10T03:28:24.758Z,15.70
2022-08-10T03:30:53.499Z,15.70
2022-08-10T03:33:22.489Z,15.60
2022-08-10T03:36:43.168Z,15.60
2022-08-10T03:38:40.685Z,15.60
2022-08-10T03:41:16.157Z,15.70
2022-08-10T03:43:49.102Z,15.80
2022-08-10T03:46:19.927Z,15.70
2022-08-10T03:48:52.143Z,15.70
2022-08-10T03:51:21.855Z,15.70
2022-08-10T03:54:04.840Z,15.70
2022-08-10T03:56:36.850Z,15.80
2022-08-10T03:59:06.269Z,15.90
2022-08-10T04:02:52.872Z,15.90
2022-08-10T04:04:24.564Z,16.00
2022-08-10T04:06:55.290Z,16.00
2022-08-10T04:09:43.317Z,16.00
2022-08-10T04:12:13.356Z,16.00
2022-08-10T04:14:51.041Z,16.10
2022-08-10T04:17:57.119Z,16.10
2022-08-10T04:20:20.393Z,16.30
2022-08-10T04:22:52.235Z,16.30
2022-08-10T04:25:22.417Z,16.20
2022-08-10T04:27:50.775Z,16.30
2022-08-10T04:30:18.405Z,16.30
2022-08-10T04:32:50.054Z,16.40
2022-08-10T04:35:20.696Z,16.50
2022-08-10T04:37:51.157Z,16.50
2022-08-10T04:40:28.474Z,16.50
2022-08-10T04:43:10.489Z,16.50
2022-08-10T04:45:49.199Z,16.50
2022-08-10T04:48:42.575Z,16.50
2022-08-10T04:51:10.787Z,16.50
2022-08-10T04:54:04.597Z,16.50
2022-08-10T04:56:31.491Z,16.50
2022-08-10T04:59:00.715Z,16.50
2022-08-10T05:02:12.492Z,16.50
2022-08-10T05:04:34.128Z,16.60
2022-08-10T05:07:06.918Z,16.60
2022-08-10T05:10:01.826Z,16.70
2022-08-10T05:12:22.415Z,16.70
2022-08-10T05:14:52.135Z,16.70
2022-08-10T05:17:20.194Z,16.70
2022-08-10T05:20:03.757Z,16.80
2022-08-10T05:22:38.629Z,16.90
2022-08-10T05:25:09.438Z,17.00
2022-08-10T05:27:37.194Z,17.10
2022-08-10T05:30:05.988Z,17.10
2022-08-10T05:32:56.435Z,17.20
2022-08-10T05:35:22.397Z,17.20
2022-08-10T05:38:10.596Z,17.30
2022-08-10T05:40:46.098Z,17.40
2022-08-10T05:43:19.813Z,17.50
2022-08-10T05:46:19.210Z,17.60
2022-08-10T05:48:42.150Z,17.70
2022-08-10T05:51:26.611Z,17.60
2022-08-10T05:54:02.863Z,17.70
2022-08-10T05:56:53.612Z,17.80
2022-08-10T06:00:30.881Z,17.90
2022-08-10T06:02:31.649Z,17.90
2022-08-10T06:05:05.422Z,18.00
2022-08-10T06:07:33.443Z,18.00
2022-08-10T06:10:02.510Z,18.20
2022-08-10T06:12:53.406Z,18.30
2022-08-10T06:15:50.909Z,18.40
2022-08-10T06:18:09.807Z,18.50
2022-08-10T06:20:37.910Z,18.60
2022-08-10T06:23:06.675Z,18.60
2022-08-10T06:28:23.665Z,18.70
2022-08-10T06:30:53.886Z,18.80
2022-08-10T06:33:23.522Z,18.80
2022-08-10T06:35:55.207Z,19.00
2022-08-10T06:38:25.281Z,19.10
2022-08-10T06:40:57.176Z,19.20
2022-08-10T06:43:27.659Z,19.30
2022-08-10T06:46:08.626Z,19.30
2022-08-10T06:48:41.707Z,19.50
2022-08-10T06:51:13.765Z,19.50
2022-08-10T06:54:01.296Z,19.70
2022-08-10T06:56:37.650Z,19.70
2022-08-10T06:59:21.725Z,19.80
2022-08-10T07:01:54.508Z,19.80
2022-08-10T07:04:32.850Z,19.90
2022-08-10T07:07:04.874Z,20.10
2022-08-10T07:09:36.894Z,20.20
2022-08-10T07:12:07.914Z,20.20
2022-08-10T07:14:43.684Z,20.40
2022-08-10T07:17:15.242Z,20.40
2022-08-10T07:19:49.977Z,20.50
2022-08-10T07:23:05.905Z,20.50
2022-08-10T07:25:12.513Z,20.60
2022-08-10T07:28:00.676Z,20.60
2022-08-10T07:30:30.942Z,20.70
2022-08-10T07:32:59.088Z,20.90
2022-08-10T07:35:27.268Z,21.10
2022-08-10T07:37:55.035Z,21.10
2022-08-10T07:40:23.630Z,21.10
2022-08-10T07:42:56.196Z,21.10
2022-08-10T07:45:25.899Z,20.90
2022-08-10T07:48:00.543Z,20.90
2022-08-10T07:50:33.117Z,20.80
2022-08-10T07:53:04.556Z,20.80
2022-08-10T07:56:04.911Z,20.90
2022-08-10T07:58:22.424Z,20.80
2022-08-10T08:00:51.713Z,20.80
2022-08-10T08:03:21.295Z,20.70
2022-08-10T08:05:58.777Z,20.80
2022-08-10T08:08:30.982Z,20.80
2022-08-10T08:10:58.490Z,20.90
2022-08-10T08:13:26.722Z,21.00
2022-08-10T08:16:19.281Z,21.10
2022-08-10T08:19:03.797Z,21.10
2022-08-10T08:24:09.125Z,21.20
2022-08-10T08:24:32.921Z,21.30
2022-08-10T08:27:02.193Z,21.40
2022-08-10T08:29:31.540Z,21.50
2022-08-10T08:32:02.194Z,21.60
2022-08-10T08:34:32.102Z,21.70
2022-08-10T08:37:00.995Z,21.90
2022-08-10T08:39:28.987Z,22.00
2022-08-10T08:42:08.346Z,22.20
2022-08-10T08:44:54.439Z,22.30
2022-08-10T08:48:04.216Z,22.30
2022-08-10T08:50:14.854Z,22.30
2022-08-10T08:52:51.249Z,22.30
2022-08-10T08:56:04.420Z,22.30
2022-08-10T08:58:08.666Z,22.30
2022-08-10T09:00:39.034Z,22.60
2022-08-10T09:03:16.980Z,22.70
2022-08-10T09:05:58.727Z,23.10
2022-08-10T09:08:37.627Z,23.60
2022-08-10T09:11:24.463Z,23.80
2022-08-10T09:14:05.514Z,23.80
2022-08-10T09:16:37.868Z,23.80
2022-08-10T09:19:35.472Z,23.40
2022-08-10T09:22:22.617Z,23.20
2022-08-10T09:25:05.224Z,23.00
2022-08-10T09:27:35.244Z,22.70
2022-08-10T09:30:05.536Z,22.70
2022-08-10T09:36:15.243Z,22.60
2022-08-10T09:36:23.691Z,22.70
2022-08-10T09:38:38.107Z,22.70
2022-08-10T09:41:23.852Z,22.80
2022-08-10T09:43:57.355Z,22.90
2022-08-10T09:46:33.497Z,23.00
2022-08-10T09:49:17.577Z,23.10
2022-08-10T09:51:58.305Z,23.40
2022-08-10T09:54:35.428Z,23.60
2022-08-10T09:57:44.515Z,23.80
2022-08-10T10:00:09.399Z,24.00
2022-08-10T10:02:55.191Z,24.50
2022-08-10T10:05:30.020Z,24.60
2022-08-10T10:08:07.888Z,24.70
2022-08-10T10:10:47.707Z,24.40
2022-08-10T10:14:00.170Z,24.50
2022-08-10T10:16:17.843Z,25.00
2022-08-10T10:18:49.835Z,25.20
2022-08-10T10:21:55.765Z,25.10
2022-08-10T10:24:30.354Z,25.10
2022-08-10T10:26:59.349Z,25.00
2022-08-10T10:29:57.342Z,25.20
2022-08-10T10:32:36.546Z,25.20
2022-08-10T10:35:23.675Z,25.50
2022-08-10T10:38:01.465Z,25.40
2022-08-10T10:40:44.105Z,25.50
2022-08-10T10:43:40.940Z,25.70
2022-08-10T10:46:08.279Z,26.00
2022-08-10T10:48:41.786Z,26.10
2022-08-10T10:51:23.832Z,26.10
2022-08-10T10:54:02.644Z,25.70
2022-08-10T10:56:39.605Z,25.50
2022-08-10T10:59:55.162Z,25.70
2022-08-10T11:02:39.195Z,25.80
2022-08-10T11:05:21.807Z,26.00
2022-08-10T11:07:53.489Z,27.10
2022-08-10T11:10:32.513Z,27.40
2022-08-10T11:14:26.525Z,27.50
2022-08-10T11:16:25.922Z,29.50
2022-08-10T11:19:07.921Z,30.40
2022-08-10T11:21:35.130Z,31.60
2022-08-10T11:24:47.111Z,32.50
2022-08-10T11:27:00.906Z,32.40
2022-08-10T11:29:33.801Z,32.50
2022-08-10T11:32:21.295Z,32.90
2022-08-10T11:35:11.057Z,33.20
2022-08-10T11:38:31.559Z,33.80
2022-08-10T11:40:37.599Z,32.60
2022-08-10T11:43:21.142Z,32.00
2022-08-10T11:46:08.683Z,31.70
2022-08-10T11:48:54.440Z,31.40
2022-08-10T11:51:26.842Z,32.20
2022-08-10T11:53:58.385Z,33.20
2022-08-10T11:56:44.335Z,33.90
2022-08-10T11:59:30.328Z,34.30
2022-08-10T12:01:58.192Z,35.00
2022-08-10T12:04:26.276Z,34.60
2022-08-10T12:06:56.253Z,32.50
2022-08-10T12:10:10.999Z,32.30
2022-08-10T12:12:12.250Z,31.00
2022-08-10T12:14:53.552Z,29.60
2022-08-10T12:17:35.849Z,28.90
2022-08-10T12:20:05.155Z,28.60
2022-08-10T12:22:50.415Z,30.40
2022-08-10T12:25:56.463Z,31.70
2022-08-10T12:28:49.497Z,33.00
2022-08-10T12:31:15.397Z,34.30
2022-08-10T12:34:03.338Z,35.40
2022-08-10T12:36:38.092Z,35.50
2022-08-10T12:39:28.821Z,34.80
2022-08-10T12:42:10.458Z,33.40
2022-08-10T12:44:41.390Z,33.30
2022-08-10T12:47:22.190Z,33.60
2022-08-10T12:50:29.984Z,34.50
2022-08-10T12:53:16.282Z,35.60
2022-08-10T12:55:44.464Z,36.10
2022-08-10T12:58:57.525Z,35.80
2022-08-10T13:01:16.242Z,35.80
2022-08-10T13:04:23.995Z,35.40
2022-08-10T13:06:36.520Z,34.80
2022-08-10T13:09:09.550Z,35.10
2022-08-10T13:12:39.446Z,35.40
2022-08-10T13:14:32.624Z,35.30
2022-08-10T13:17:00.886Z,35.50
2022-08-10T13:19:29.069Z,34.60
2022-08-10T13:22:16.590Z,33.80
2022-08-10T13:24:45.594Z,33.70
2022-08-10T13:28:02.800Z,34.30
2022-08-10T13:30:15.566Z,34.40
2022-08-10T13:32:48.317Z,34.40
2022-08-10T13:35:18.890Z,34.60
2022-08-10T13:37:47.697Z,34.80
2022-08-10T13:40:18.160Z,35.20
2022-08-10T13:42:47.308Z,35.40
2022-08-10T13:45:16.268Z,35.50
2022-08-10T13:47:48.971Z,35.40
2022-08-10T13:50:35.494Z,35.00
2022-08-10T13:53:09.929Z,35.20
2022-08-10T13:55:53.309Z,35.30
2022-08-10T13:58:32.685Z,35.70
2022-08-10T14:01:01.305Z,35.70
2022-08-10T14:03:29.129Z,36.00
2022-08-10T14:05:58.503Z,36.00
2022-08-10T14:08:27.703Z,36.20
2022-08-10T14:11:04.098Z,36.50
2022-08-10T14:13:36.743Z,36.10
2022-08-10T14:16:07.856Z,35.80
2022-08-10T14:18:36.007Z,35.20
2022-08-10T14:21:04.922Z,35.40
2022-08-10T14:23:39.469Z,35.30
2022-08-10T14:26:09.075Z,34.50
2022-08-10T14:28:40.439Z,33.50
2022-08-10T14:31:09.836Z,33.60
2022-08-10T14:33:38.791Z,33.90
2022-08-10T14:36:22.264Z,33.50
2022-08-10T14:38:52.942Z,33.60
2022-08-10T14:42:01.355Z,33.80
2022-08-10T14:44:13.189Z,33.20
2022-08-10T14:46:45.596Z,32.70
2022-08-10T14:49:26.512Z,33.10
2022-08-10T14:51:59.459Z,33.70
2022-08-10T14:54:32.464Z,34.00
2022-08-10T14:57:10.849Z,34.40
2022-08-10T15:00:25.290Z,34.60
2022-08-10T15:02:39.797Z,34.90
2022-08-10T15:05:10.018Z,33.40
2022-08-10T15:07:38.295Z,32.00
2022-08-10T15:10:08.898Z,30.80
2022-08-10T15:12:37.264Z,29.50
2022-08-10T15:15:18.252Z,28.50
2022-08-10T15:17:57.574Z,27.80
2022-08-10T15:20:26.444Z,27.20
2022-08-10T15:23:01.137Z,26.80
2022-08-10T15:25:29.286Z,26.40
2022-08-10T15:28:06.263Z,26.30
2022-08-10T15:30:48.549Z,26.20
2022-08-10T15:34:03.380Z,25.90
2022-08-10T15:36:43.446Z,25.70
2022-08-10T15:40:21.833Z,25.80
2022-08-10T15:42:05.644Z,25.80
2022-08-10T15:44:38.635Z,25.80
2022-08-10T15:47:08.980Z,25.80
2022-08-10T15:49:45.182Z,25.70
2022-08-10T15:52:38.841Z,25.60
2022-08-10T15:55:42.795Z,25.40
2022-08-10T15:58:05.830Z,25.90
2022-08-10T16:00:37.348Z,26.50
2022-08-10T16:03:15.749Z,26.80
2022-08-10T16:06:01.721Z,26.20
2022-08-10T16:08:36.063Z,25.70
2022-08-10T16:11:25.650Z,24.90
2022-08-10T16:14:00.240Z,23.70
2022-08-10T16:16:32.800Z,22.90
2022-08-10T16:19:02.344Z,22.70
2022-08-10T16:21:29.781Z,22.60
2022-08-10T16:24:14.641Z,23.20
2022-08-10T16:26:47.299Z,23.50
2022-08-10T16:29:17.650Z,23.40
2022-08-10T16:31:50.696Z,23.90
2022-08-10T16:34:18.895Z,24.70
2022-08-10T16:36:57.832Z,25.00
2022-08-10T16:39:59.427Z,25.40
2022-08-10T16:42:23.618Z,25.60
2022-08-10T16:44:52.249Z,25.40
2022-08-10T16:47:27.151Z,25.40
2022-08-10T16:49:59.972Z,25.50
2022-08-10T16:52:29.283Z,25.30
2022-08-10T16:54:59.417Z,25.20
2022-08-10T16:57:45.412Z,25.10
2022-08-10T17:00:13.109Z,24.60
2022-08-10T17:02:41.783Z,24.20
2022-08-10T17:05:10.965Z,23.80
2022-08-10T17:07:39.081Z,23.50
2022-08-10T17:10:10.374Z,23.20
2022-08-10T17:12:38.538Z,22.90
2022-08-10T17:15:09.584Z,22.70
2022-08-10T17:17:41.553Z,22.60
2022-08-10T17:20:31.497Z,22.40
2022-08-10T17:23:00.473Z,22.30
2022-08-10T17:25:46.110Z,22.30
2022-08-10T17:28:32.794Z,22.10
2022-08-10T17:31:36.118Z,22.00
2022-08-10T17:34:04.686Z,21.70
2022-08-10T17:36:33.557Z,21.40
2022-08-10T17:39:02.275Z,21.20
2022-08-10T17:41:31.391Z,21.00
2022-08-10T17:44:02.861Z,20.90
2022-08-10T17:46:33.021Z,20.70
2022-08-10T17:49:05.043Z,20.60
2022-08-10T17:51:32.805Z,20.50
2022-08-10T17:54:00.911Z,20.30
2022-08-10T17:56:31.608Z,20.20
2022-08-10T17:59:05.251Z,20.20
2022-08-10T18:01:40.948Z,20.10
2022-08-10T18:04:22.534Z,20.10
2022-08-10T18:06:54.732Z,20.10
2022-08-10T18:09:27.255Z,20.10
2022-08-10T18:11:57.753Z,20.10
2022-08-10T18:14:28.942Z,20.10
2022-08-10T18:16:57.931Z,20.10
2022-08-10T18:19:29.851Z,20.00
2022-08-10T18:21:58.371Z,19.90
2022-08-10T18:24:27.250Z,19.80
2022-08-10T18:26:55.559Z,19.70
2022-08-10T18:29:24.375Z,19.70
2022-08-10T18:31:55.656Z,19.70
2022-08-10T18:34:23.520Z,19.60
2022-08-10T18:36:51.486Z,19.60
2022-08-10T18:39:24.212Z,19.50
2022-08-10T18:42:05.216Z,19.40
2022-08-10T18:44:36.888Z,19.40
2022-08-10T18:47:08.720Z,19.40
2022-08-10T18:49:38.512Z,19.30
2022-08-10T18:52:09.177Z,19.30
2022-08-10T18:54:44.994Z,19.30
2022-08-10T18:57:36.106Z,19.30
2022-08-10T19:00:09.788Z,19.20
2022-08-10T19:02:56.034Z,19.20
2022-08-10T19:05:44.302Z,19.20
2022-08-10T19:08:33.541Z,19.20
2022-08-10T19:11:02.979Z,19.20
2022-08-10T19:13:38.335Z,19.00
2022-08-10T19:16:24.182Z,18.90
2022-08-10T19:18:57.536Z,18.80
2022-08-10T19:21:30.920Z,18.70
2022-08-10T19:24:04.352Z,18.70
2022-08-10T19:26:41.900Z,18.60
2022-08-10T19:30:11.259Z,18.60
2022-08-10T19:32:23.829Z,18.60
2022-08-10T19:35:01.151Z,18.50
2022-08-10T19:37:34.558Z,18.50
2022-08-10T19:40:18.202Z,18.60
2022-08-10T19:42:59.590Z,18.50
2022-08-10T19:45:55.878Z,18.50
2022-08-10T19:48:30.054Z,18.50
2022-08-10T19:51:17.581Z,18.40
2022-08-10T19:53:56.809Z,18.40
2022-08-10T19:56:34.604Z,18.20
2022-08-10T19:59:15.565Z,18.10
2022-08-10T20:01:55.423Z,18.00
2022-08-10T20:04:31.647Z,18.00
2022-08-10T20:07:23.599Z,17.90
2022-08-10T20:10:00.413Z,17.90
2022-08-10T20:12:39.939Z,17.80
2022-08-10T20:15:15.707Z,17.90
2022-08-10T20:17:56.320Z,17.90
2022-08-10T20:20:31.020Z,17.90
2022-08-10T20:23:01.565Z,17.90
2022-08-10T20:25:29.732Z,17.90
2022-08-10T20:28:15.556Z,18.10
2022-08-10T20:30:45.651Z,18.10
2022-08-10T20:33:17.359Z,18.10
2022-08-10T20:35:49.722Z,18.10
2022-08-10T20:38:22.064Z,18.00
2022-08-10T20:41:15.829Z,18.00
2022-08-10T20:43:52.281Z,17.90
2022-08-10T20:46:19.491Z,18.00
2022-08-10T20:48:51.299Z,17.90
2022-08-10T20:51:23.319Z,17.90
2022-08-10T20:53:55.127Z,17.90
2022-08-10T20:56:45.823Z,17.80
2022-08-10T21:00:04.119Z,17.70
2022-08-10T21:02:39.771Z,17.70
2022-08-10T21:05:16.235Z,17.80
2022-08-10T21:08:08.230Z,17.70
2022-08-10T21:10:58.965Z,17.60
2022-08-10T21:13:29.046Z,17.60
2022-08-10T21:16:02.166Z,17.60
2022-08-10T21:21:44.153Z,17.60
2022-08-10T21:24:16.435Z,17.70
2022-08-10T21:25:41.479Z,17.60
2022-08-10T21:27:02.572Z,17.70
2022-08-10T21:29:41.351Z,17.60
2022-08-10T21:32:08.525Z,17.60
2022-08-10T21:34:57.316Z,17.60
2022-08-10T21:37:34.159Z,17.60
2022-08-10T21:40:34.570Z,17.60
2022-08-10T21:43:44.403Z,17.60
2022-08-10T21:46:54.723Z,17.60
2022-08-10T21:49:49.278Z,17.70
2022-08-10T21:52:53.424Z,17.70
2022-08-10T21:55:58.802Z,17.70
2022-08-10T21:59:07.082Z,17.70
2022-08-10T22:02:05.750Z,17.80
2022-08-10T22:04:51.878Z,17.80
2022-08-10T22:07:38.621Z,17.80
2022-08-10T22:10:25.679Z,17.70
2022-08-10T22:13:12.559Z,17.70
2022-08-10T22:16:10.554Z,17.70
2022-08-10T22:19:03.594Z,17.70
2022-08-10T22:21:49.548Z,17.60
2022-08-10T22:24:43.051Z,17.60
2022-08-10T22:27:56.596Z,17.50
2022-08-10T22:30:42.344Z,17.60
2022-08-10T22:33:51.517Z,17.60
2022-08-10T22:36:51.168Z,17.60
2022-08-10T22:40:13.101Z,17.60
2022-08-10T22:42:59.668Z,17.60
2022-08-10T22:45:57.547Z,17.50
2022-08-10T22:48:43.384Z,17.50
2022-08-10T22:51:20.401Z,17.50
2022-08-10T22:54:31.081Z,17.50
2022-08-10T22:57:19.017Z,17.40
2022-08-10T22:59:46.962Z,17.30
2022-08-10T23:02:19.221Z,17.30
2022-08-10T23:04:53.214Z,17.20
2022-08-10T23:07:23.541Z,17.20
2022-08-10T23:10:02.755Z,17.10
2022-08-10T23:12:34.554Z,17.10
2022-08-10T23:15:21.025Z,17.20
2022-08-10T23:18:09.157Z,17.20
2022-08-10T23:20:37.856Z,17.20
2022-08-10T23:23:09.954Z,17.10
2022-08-10T23:25:57.332Z,17.10
2022-08-10T23:28:39.389Z,17.00
2022-08-10T23:31:14.231Z,17.00
2022-08-10T23:33:42.055Z,17.00
2022-08-10T23:36:34.656Z,16.90
2022-08-10T23:39:24.545Z,16.90
2022-08-10T23:41:53.153Z,16.90
2022-08-10T23:44:21.583Z,16.90
2022-08-10T23:46:49.244Z,16.90
2022-08-10T23:49:16.670Z,17.00
2022-08-10T23:51:56.517Z,17.00
2022-08-10T23:54:25.012Z,17.00
2022-08-10T23:56:54.408Z,17.00
2022-08-10T23:59:23.719Z,17.10
